createdAt,value
2022-08-25T00:00:19.377Z,23.55
2022-08-25T00:02:17.424Z,23.54
2022-08-25T00:04:16.343Z,23.50
2022-08-25T00:06:14.030Z,23.49
2022-08-25T00:08:08.749Z,23.47
2022-08-25T00:10:02.946Z,23.45
2022-08-25T00:11:57.905Z,23.43
2022-08-25T00:13:56.048Z,23.40
2022-08-25T00:15:53.214Z,23.38
2022-08-25T00:17:48.206Z,23.36
2022-08-25T00:19:45.410Z,23.35
2022-08-25T00:21:41.496Z,23.34
2022-08-25T00:23:36.857Z,23.31
2022-08-25T00:25:32.859Z,23.29
2022-08-25T00:27:28.012Z,23.29
2022-08-25T00:29:23.040Z,23.27
2022-08-25T00:31:01.002Z,23.27
2022-08-25T00:32:05.230Z,23.25
2022-08-25T00:33:08.605Z,23.24
2022-08-25T00:34:18.277Z,23.24
2022-08-25T00:35:22.584Z,23.25
2022-08-25T00:36:27.738Z,23.25
2022-08-25T00:37:31.030Z,23.27
2022-08-25T00:38:34.290Z,23.28
2022-08-25T00:39:39.379Z,23.30
2022-08-25T00:40:43.474Z,23.31
2022-08-25T00:41:48.023Z,23.33
2022-08-25T00:42:51.221Z,23.34
2022-08-25T00:43:57.770Z,23.35
2022-08-25T00:45:00.962Z,23.35
2022-08-25T00:46:05.126Z,23.37
2022-08-25T00:47:09.544Z,23.38
2022-08-25T00:48:12.936Z,23.39
2022-08-25T00:49:37.990Z,23.40
2022-08-25T00:50:41.692Z,23.41
2022-08-25T00:51:55.689Z,23.40
2022-08-25T00:53:02.631Z,23.40
2022-08-25T00:54:08.339Z,23.40
2022-08-25T00:55:15.157Z,23.40
2022-08-25T00:56:20.821Z,23.39
2022-08-25T00:57:34.326Z,23.40
2022-08-25T00:58:38.622Z,23.39
2022-08-25T00:59:43.852Z,23.40
2022-08-25T01:00:51.716Z,23.39
2022-08-25T01:01:56.794Z,23.40
2022-08-25T01:03:00.409Z,23.39
2022-08-25T01:04:03.881Z,23.39
2022-08-25T01:05:07.797Z,23.39
2022-08-25T01:06:11.602Z,23.38
2022-08-25T01:07:17.899Z,23.38
2022-08-25T01:08:26.668Z,23.38
2022-08-25T01:09:32.634Z,23.37
2022-08-25T01:10:40.833Z,23.35
2022-08-25T01:11:46.609Z,23.35
2022-08-25T01:12:52.197Z,23.35
2022-08-25T01:13:57.074Z,23.35
2022-08-25T01:15:01.786Z,23.34
2022-08-25T01:16:05.641Z,23.35
2022-08-25T01:17:09.401Z,23.34
2022-08-25T01:18:12.930Z,23.34
2022-08-25T01:19:16.601Z,23.34
2022-08-25T01:20:22.614Z,23.34
2022-08-25T01:21:30.728Z,23.32
2022-08-25T01:22:34.117Z,23.31
2022-08-25T01:23:38.112Z,23.31
2022-08-25T01:24:54.088Z,23.30
2022-08-25T01:26:12.775Z,23.29
2022-08-25T01:27:16.651Z,23.28
2022-08-25T01:28:21.109Z,23.27
2022-08-25T01:29:27.237Z,23.25
2022-08-25T01:30:30.874Z,23.25
2022-08-25T01:31:36.145Z,23.24
2022-08-25T01:32:39.669Z,23.23
2022-08-25T01:33:43.183Z,23.22
2022-08-25T01:34:46.541Z,23.22
2022-08-25T01:35:50.122Z,23.21
2022-08-25T01:36:54.845Z,23.21
2022-08-25T01:37:59.011Z,23.20
2022-08-25T01:39:02.800Z,23.19
2022-08-25T01:40:07.099Z,23.18
2022-08-25T01:41:10.535Z,23.17
2022-08-25T01:42:20.771Z,23.16
2022-08-25T01:44:45.735Z,23.25
2022-08-25T01:45:49.031Z,23.14
2022-08-25T01:46:53.043Z,23.13
2022-08-25T01:47:56.458Z,23.11
2022-08-25T01:49:06.216Z,23.10
2022-08-25T01:50:07.525Z,23.09
2022-08-25T01:51:10.911Z,23.07
2022-08-25T01:52:30.012Z,23.06
2022-08-25T01:53:33.809Z,23.04
2022-08-25T01:54:37.240Z,23.03
2022-08-25T01:55:52.732Z,23.01
2022-08-25T01:56:58.721Z,23.01
2022-08-25T01:58:02.029Z,22.98
2022-08-25T01:59:05.434Z,22.98
2022-08-25T02:00:13.456Z,22.98
2022-08-25T02:01:20.311Z,22.96
2022-08-25T02:02:23.740Z,22.96
2022-08-25T02:03:29.085Z,22.94
2022-08-25T02:04:32.994Z,22.93
2022-08-25T02:05:38.642Z,22.92
2022-08-25T02:06:42.090Z,22.91
2022-08-25T02:07:46.329Z,22.88
2022-08-25T02:08:55.642Z,22.86
2022-08-25T02:09:59.006Z,22.86
2022-08-25T02:11:04.894Z,22.84
2022-08-25T02:12:09.129Z,22.82
2022-08-25T02:13:12.844Z,22.82
2022-08-25T02:14:19.349Z,22.80
2022-08-25T02:15:22.759Z,22.80
2022-08-25T02:16:30.273Z,22.79
2022-08-25T02:17:36.133Z,22.78
2022-08-25T02:18:39.460Z,22.78
2022-08-25T02:19:43.072Z,22.75
2022-08-25T02:20:47.200Z,22.73
2022-08-25T02:21:50.662Z,22.71
2022-08-25T02:22:56.881Z,22.69
2022-08-25T02:23:59.940Z,22.68
2022-08-25T02:25:05.810Z,22.68
2022-08-25T02:26:10.094Z,22.66
2022-08-25T02:27:13.489Z,22.64
2022-08-25T02:28:16.698Z,22.62
2022-08-25T02:29:20.125Z,22.61
2022-08-25T02:30:23.707Z,22.60
2022-08-25T02:31:27.385Z,22.59
2022-08-25T02:32:30.731Z,22.57
2022-08-25T02:33:33.978Z,22.56
2022-08-25T02:34:37.146Z,22.55
2022-08-25T02:35:40.497Z,22.52
2022-08-25T02:36:43.858Z,22.51
2022-08-25T02:37:46.981Z,22.51
2022-08-25T02:38:50.536Z,22.51
2022-08-25T02:39:53.932Z,22.50
2022-08-25T02:40:58.192Z,22.50
2022-08-25T02:42:01.539Z,22.50
2022-08-25T02:43:05.326Z,22.50
2022-08-25T02:44:09.183Z,22.49
2022-08-25T02:45:12.443Z,22.50
2022-08-25T02:46:19.457Z,22.51
2022-08-25T02:47:26.879Z,22.52
2022-08-25T02:48:28.380Z,22.51
2022-08-25T02:49:31.667Z,22.51
2022-08-25T02:50:34.926Z,22.50
2022-08-25T02:51:38.380Z,22.50
2022-08-25T02:52:41.720Z,22.51
2022-08-25T02:53:47.927Z,22.51
2022-08-25T02:54:51.264Z,22.51
2022-08-25T02:55:55.108Z,22.51
2022-08-25T02:56:59.067Z,22.50
2022-08-25T02:58:02.345Z,22.49
2022-08-25T02:59:05.750Z,22.46
2022-08-25T03:00:12.674Z,22.45
2022-08-25T03:01:16.565Z,22.46
2022-08-25T03:02:19.802Z,22.44
2022-08-25T03:03:22.891Z,22.45
2022-08-25T03:04:52.988Z,22.45
2022-08-25T03:05:58.152Z,22.45
2022-08-25T03:07:02.770Z,22.43
2022-08-25T03:08:07.125Z,22.43
2022-08-25T03:09:10.725Z,22.43
2022-08-25T03:10:18.415Z,22.42
2022-08-25T03:11:22.094Z,22.44
2022-08-25T03:12:26.714Z,22.45
2022-08-25T03:13:29.948Z,22.46
2022-08-25T03:14:33.113Z,22.46
2022-08-25T03:15:41.180Z,22.48
2022-08-25T03:16:46.478Z,22.48
2022-08-25T03:17:50.582Z,22.49
2022-08-25T03:18:53.850Z,22.49
2022-08-25T03:19:57.874Z,22.48
2022-08-25T03:21:02.774Z,22.49
2022-08-25T03:22:06.193Z,22.48
2022-08-25T03:23:09.327Z,22.49
2022-08-25T03:24:12.425Z,22.49
2022-08-25T03:25:34.689Z,22.48
2022-08-25T03:26:53.951Z,22.48
2022-08-25T03:27:57.673Z,22.48
2022-08-25T03:29:03.259Z,22.46
2022-08-25T03:30:07.337Z,22.46
2022-08-25T03:31:10.599Z,22.45
2022-08-25T03:32:13.795Z,22.45
2022-08-25T03:33:16.973Z,22.45
2022-08-25T03:34:21.447Z,22.45
2022-08-25T03:35:24.673Z,22.46
2022-08-25T03:36:28.486Z,22.45
2022-08-25T03:37:31.478Z,22.45
2022-08-25T03:38:36.954Z,22.45
2022-08-25T03:39:40.159Z,22.46
2022-08-25T03:40:43.373Z,22.46
2022-08-25T03:41:46.996Z,22.45
2022-08-25T03:42:50.297Z,22.44
2022-08-25T03:43:53.793Z,22.44
2022-08-25T03:44:57.036Z,22.44
2022-08-25T03:46:00.255Z,22.44
2022-08-25T03:47:03.454Z,22.44
2022-08-25T03:48:06.520Z,22.44
2022-08-25T03:49:12.648Z,22.44
2022-08-25T03:50:18.326Z,22.45
2022-08-25T03:51:30.378Z,22.45
2022-08-25T03:52:33.521Z,22.46
2022-08-25T03:53:36.664Z,22.46
2022-08-25T03:54:39.759Z,22.46
2022-08-25T03:55:43.006Z,22.46
2022-08-25T03:56:46.635Z,22.48
2022-08-25T03:57:51.024Z,22.48
2022-08-25T03:58:55.049Z,22.48
2022-08-25T03:59:58.231Z,22.48
2022-08-25T04:01:01.424Z,22.48
2022-08-25T04:02:06.104Z,22.47
2022-08-25T04:03:11.346Z,22.48
2022-08-25T04:04:15.626Z,22.47
2022-08-25T04:05:19.685Z,22.47
2022-08-25T04:06:24.189Z,22.47
2022-08-25T04:07:28.540Z,22.48
2022-08-25T04:08:34.959Z,22.47
2022-08-25T04:09:38.341Z,22.47
2022-08-25T04:10:41.443Z,22.49
2022-08-25T04:11:44.504Z,22.48
2022-08-25T04:12:48.802Z,22.49
2022-08-25T04:13:53.605Z,22.48
2022-08-25T04:14:57.560Z,22.48
2022-08-25T04:16:00.876Z,22.49
2022-08-25T04:17:04.283Z,22.48
2022-08-25T04:18:07.656Z,22.48
2022-08-25T04:19:11.657Z,22.49
2022-08-25T04:20:15.055Z,22.50
2022-08-25T04:21:20.265Z,22.51
2022-08-25T04:22:24.508Z,22.51
2022-08-25T04:23:27.604Z,22.52
2022-08-25T04:24:30.734Z,22.53
2022-08-25T04:25:34.231Z,22.55
2022-08-25T04:26:43.812Z,22.55
2022-08-25T04:27:47.045Z,22.56
2022-08-25T04:28:50.269Z,22.57
2022-08-25T04:29:53.404Z,22.59
2022-08-25T04:30:56.686Z,22.60
2022-08-25T04:31:59.870Z,22.63
2022-08-25T04:33:03.148Z,22.65
2022-08-25T04:34:10.170Z,22.66
2022-08-25T04:35:12.207Z,22.68
2022-08-25T04:36:19.002Z,22.69
2022-08-25T04:37:22.093Z,22.71
2022-08-25T04:38:25.542Z,22.72
2022-08-25T04:39:28.976Z,22.73
2022-08-25T04:40:32.820Z,22.74
2022-08-25T04:41:36.074Z,22.75
2022-08-25T04:42:39.474Z,22.76
2022-08-25T04:43:43.818Z,22.77
2022-08-25T04:44:47.198Z,22.77
2022-08-25T04:45:50.357Z,22.78
2022-08-25T04:46:53.583Z,22.78
2022-08-25T04:47:58.541Z,22.79
2022-08-25T04:49:02.149Z,22.79
2022-08-25T04:50:07.084Z,22.82
2022-08-25T04:51:13.266Z,22.82
2022-08-25T04:52:16.460Z,22.82
2022-08-25T04:53:21.167Z,22.84
2022-08-25T04:54:24.457Z,22.85
2022-08-25T04:55:28.246Z,22.86
2022-08-25T04:56:33.200Z,22.88
2022-08-25T04:57:36.951Z,22.89
2022-08-25T04:58:41.170Z,22.91
2022-08-25T04:59:44.436Z,22.93
2022-08-25T05:00:47.723Z,22.93
2022-08-25T05:01:52.274Z,22.93
2022-08-25T05:02:55.641Z,22.95
2022-08-25T05:04:01.055Z,22.96
2022-08-25T05:05:04.691Z,22.98
2022-08-25T05:06:13.976Z,23.00
2022-08-25T05:07:14.739Z,23.02
2022-08-25T05:08:17.830Z,23.03
2022-08-25T05:09:21.814Z,23.03
2022-08-25T05:10:25.652Z,23.04
2022-08-25T05:11:29.874Z,23.06
2022-08-25T05:12:33.748Z,23.08
2022-08-25T05:13:38.083Z,23.09
2022-08-25T05:14:41.382Z,23.12
2022-08-25T05:15:51.047Z,23.12
2022-08-25T05:16:55.462Z,23.14
2022-08-25T05:17:58.624Z,23.15
2022-08-25T05:19:01.762Z,23.17
2022-08-25T05:20:05.446Z,23.20
2022-08-25T05:21:12.307Z,23.20
2022-08-25T05:22:15.690Z,23.22
2022-08-25T05:23:19.245Z,23.25
2022-08-25T05:24:22.390Z,23.28
2022-08-25T05:25:25.562Z,23.29
2022-08-25T05:26:32.782Z,23.34
2022-08-25T05:27:36.210Z,23.34
2022-08-25T05:28:43.260Z,23.37
2022-08-25T05:29:46.876Z,23.38
2022-08-25T05:30:50.646Z,23.41
2022-08-25T05:31:53.919Z,23.44
2022-08-25T05:32:57.264Z,23.45
2022-08-25T05:34:00.702Z,23.48
2022-08-25T05:35:05.877Z,23.49
2022-08-25T05:36:12.224Z,23.52
2022-08-25T05:37:15.972Z,23.54
2022-08-25T05:38:19.698Z,23.57
2022-08-25T05:39:26.860Z,23.58
2022-08-25T05:40:33.335Z,23.60
2022-08-25T05:41:37.518Z,23.62
2022-08-25T05:42:41.897Z,23.64
2022-08-25T05:43:48.282Z,23.66
2022-08-25T05:44:52.970Z,23.68
2022-08-25T05:45:58.064Z,23.70
2022-08-25T05:47:01.390Z,23.72
2022-08-25T05:48:04.747Z,23.73
2022-08-25T05:49:07.886Z,23.76
2022-08-25T05:50:11.305Z,23.78
2022-08-25T05:51:15.562Z,23.79
2022-08-25T05:52:20.306Z,23.80
2022-08-25T05:53:24.725Z,23.82
2022-08-25T05:54:27.972Z,23.84
2022-08-25T05:55:31.032Z,23.85
2022-08-25T05:56:34.235Z,23.87
2022-08-25T05:57:37.391Z,23.89
2022-08-25T05:58:42.291Z,23.91
2022-08-25T05:59:45.529Z,23.93
2022-08-25T06:00:49.235Z,23.94
2022-08-25T06:02:10.791Z,23.96
2022-08-25T06:03:15.781Z,24.00
2022-08-25T06:04:19.798Z,24.00
2022-08-25T06:05:24.310Z,24.01
2022-08-25T06:06:28.549Z,24.03
2022-08-25T06:07:32.768Z,24.04
2022-08-25T06:08:35.870Z,24.05
2022-08-25T06:09:40.256Z,24.07
2022-08-25T06:10:43.476Z,24.09
2022-08-25T06:11:51.645Z,24.10
2022-08-25T06:12:53.535Z,24.13
2022-08-25T06:13:58.601Z,24.15
2022-08-25T06:15:02.708Z,24.16
2022-08-25T06:16:07.786Z,24.17
2022-08-25T06:17:10.939Z,24.20
2022-08-25T06:18:14.428Z,24.24
2022-08-25T06:19:18.109Z,24.24
2022-08-25T06:20:25.375Z,24.26
2022-08-25T06:21:29.190Z,24.28
2022-08-25T06:22:32.467Z,24.29
2022-08-25T06:23:37.070Z,24.31
2022-08-25T06:24:40.315Z,24.33
2022-08-25T06:25:51.998Z,24.36
2022-08-25T06:26:55.824Z,24.37
2022-08-25T06:27:59.092Z,24.40
2022-08-25T06:29:03.291Z,24.41
2022-08-25T06:30:09.974Z,24.44
2022-08-25T06:31:14.634Z,24.49
2022-08-25T06:32:17.839Z,24.49
2022-08-25T06:33:21.011Z,24.53
2022-08-25T06:34:24.451Z,24.56
2022-08-25T06:35:27.677Z,24.59
2022-08-25T06:36:30.917Z,24.63
2022-08-25T06:37:34.161Z,24.67
2022-08-25T06:38:37.249Z,24.71
2022-08-25T06:39:40.366Z,24.75
2022-08-25T06:40:47.132Z,24.81
2022-08-25T06:41:54.675Z,24.86
2022-08-25T06:42:59.661Z,24.93
2022-08-25T06:44:05.279Z,24.99
2022-08-25T06:45:09.647Z,25.04
2022-08-25T06:46:16.227Z,25.09
2022-08-25T06:47:19.663Z,25.17
2022-08-25T06:48:23.428Z,25.23
2022-08-25T06:49:30.087Z,25.29
2022-08-25T06:50:33.716Z,25.36
2022-08-25T06:51:36.826Z,25.42
2022-08-25T06:52:39.967Z,25.47
2022-08-25T06:53:44.855Z,25.54
2022-08-25T06:54:49.149Z,25.59
2022-08-25T06:55:57.358Z,25.66
2022-08-25T06:57:00.774Z,25.71
2022-08-25T06:58:05.337Z,25.75
2022-08-25T06:59:09.955Z,25.80
2022-08-25T07:00:13.671Z,25.84
2022-08-25T07:01:22.793Z,25.89
2022-08-25T07:02:27.853Z,25.89
2022-08-25T07:03:32.587Z,25.92
2022-08-25T07:04:36.186Z,25.94
2022-08-25T07:05:43.785Z,25.96
2022-08-25T07:06:44.398Z,25.98
2022-08-25T07:07:47.634Z,25.98
2022-08-25T07:08:50.781Z,26.01
2022-08-25T07:09:53.958Z,26.01
2022-08-25T07:10:58.444Z,26.01
2022-08-25T07:12:04.191Z,26.00
2022-08-25T07:13:07.327Z,26.01
2022-08-25T07:14:11.895Z,26.00
2022-08-25T07:15:20.386Z,26.01
2022-08-25T07:16:21.857Z,26.00
2022-08-25T07:17:26.617Z,26.02
2022-08-25T07:18:29.730Z,26.02
2022-08-25T07:19:32.969Z,26.05
2022-08-25T07:20:36.512Z,26.06
2022-08-25T07:21:41.883Z,26.09
2022-08-25T07:22:45.297Z,26.10
2022-08-25T07:23:48.384Z,26.13
2022-08-25T07:24:51.479Z,26.15
2022-08-25T07:25:55.080Z,26.18
2022-08-25T07:26:58.699Z,26.21
2022-08-25T07:28:02.477Z,26.21
2022-08-25T07:29:12.164Z,26.24
2022-08-25T07:30:18.314Z,26.26
2022-08-25T07:31:21.737Z,26.28
2022-08-25T07:32:26.712Z,26.30
2022-08-25T07:33:30.005Z,26.33
2022-08-25T07:34:52.809Z,26.37
2022-08-25T07:35:57.034Z,26.41
2022-08-25T07:37:02.761Z,26.47
2022-08-25T07:38:09.179Z,26.50
2022-08-25T07:39:12.879Z,26.56
2022-08-25T07:40:21.745Z,26.58
2022-08-25T07:41:25.871Z,26.64
2022-08-25T07:42:29.482Z,26.68
2022-08-25T07:43:32.552Z,26.72
2022-08-25T07:44:35.547Z,26.76
2022-08-25T07:45:46.911Z,26.78
2022-08-25T07:46:45.215Z,26.81
2022-08-25T07:47:49.058Z,26.84
2022-08-25T07:48:54.010Z,26.87
2022-08-25T07:49:57.657Z,26.89
2022-08-25T07:51:05.601Z,26.92
2022-08-25T07:52:09.495Z,26.94
2022-08-25T07:53:14.965Z,26.97
2022-08-25T07:54:18.524Z,27.00
2022-08-25T07:55:27.141Z,27.03
2022-08-25T07:56:31.394Z,27.06
2022-08-25T07:57:34.502Z,27.09
2022-08-25T07:58:38.385Z,27.12
2022-08-25T07:59:43.398Z,27.14
2022-08-25T08:00:48.282Z,27.15
2022-08-25T08:01:53.452Z,27.17
2022-08-25T08:02:57.543Z,27.18
2022-08-25T08:04:03.537Z,27.19
2022-08-25T08:05:08.983Z,27.21
2022-08-25T08:06:16.093Z,27.22
2022-08-25T08:07:21.232Z,27.25
2022-08-25T08:08:26.747Z,27.26
2022-08-25T08:09:31.979Z,27.30
2022-08-25T08:11:04.384Z,27.32
2022-08-25T08:11:53.951Z,27.35
2022-08-25T08:12:49.607Z,27.38
2022-08-25T08:13:56.522Z,27.39
2022-08-25T08:14:59.944Z,27.45
2022-08-25T08:16:04.988Z,27.48
2022-08-25T08:17:09.946Z,27.52
2022-08-25T08:18:13.155Z,27.55
2022-08-25T08:19:17.365Z,27.59
2022-08-25T08:20:24.079Z,27.61
2022-08-25T08:21:30.658Z,27.64
2022-08-25T08:22:34.001Z,27.66
2022-08-25T08:23:37.123Z,27.68
2022-08-25T08:24:44.881Z,27.70
2022-08-25T08:25:45.410Z,27.71
2022-08-25T08:26:58.655Z,27.71
2022-08-25T08:27:56.243Z,27.72
2022-08-25T08:29:00.039Z,27.72
2022-08-25T08:30:06.067Z,27.73
2022-08-25T08:31:10.613Z,27.73
2022-08-25T08:32:14.106Z,27.73
2022-08-25T08:33:18.107Z,27.75
2022-08-25T08:34:24.859Z,27.77
2022-08-25T08:35:28.091Z,27.77
2022-08-25T08:36:31.270Z,27.79
2022-08-25T08:37:34.451Z,27.80
2022-08-25T08:38:40.440Z,27.82
2022-08-25T08:39:44.157Z,27.83
2022-08-25T08:41:54.321Z,27.85
2022-08-25T08:43:18.172Z,27.88
2022-08-25T08:44:34.968Z,27.92
2022-08-25T08:45:50.514Z,27.95
2022-08-25T08:47:00.188Z,27.98
2022-08-25T08:48:21.670Z,28.00
2022-08-25T08:49:37.416Z,28.03
2022-08-25T08:50:59.052Z,28.08
2022-08-25T08:52:04.018Z,28.10
2022-08-25T08:53:10.825Z,28.15
2022-08-25T08:54:20.388Z,28.17
2022-08-25T08:55:29.937Z,28.18
2022-08-25T08:56:36.661Z,28.20
2022-08-25T08:57:43.142Z,28.23
2022-08-25T08:59:00.590Z,28.24
2022-08-25T09:00:06.426Z,28.27
2022-08-25T09:01:13.131Z,28.28
2022-08-25T09:02:30.808Z,28.31
2022-08-25T09:03:42.088Z,28.31
2022-08-25T09:46:39.112Z,28.49
2022-08-25T09:47:44.485Z,28.44
2022-08-25T09:48:56.045Z,28.49
2022-08-25T09:50:01.128Z,28.54
2022-08-25T09:51:22.806Z,28.57
2022-08-25T09:52:32.385Z,28.62
2022-08-25T09:53:36.785Z,28.66
2022-08-25T09:54:44.173Z,28.69
2022-08-25T09:55:49.228Z,28.72
2022-08-25T09:56:57.870Z,28.75
2022-08-25T09:58:09.493Z,28.78
2022-08-25T10:00:33.210Z,28.95
2022-08-25T10:01:39.935Z,28.88
2022-08-25T10:02:46.152Z,28.90
2022-08-25T10:03:59.554Z,28.93
2022-08-25T10:05:09.271Z,28.98
2022-08-25T10:06:15.488Z,29.00
2022-08-25T10:07:31.657Z,29.02
2022-08-25T10:08:47.227Z,29.07
2022-08-25T10:10:00.007Z,29.10
2022-08-25T10:11:08.859Z,29.14
2022-08-25T10:12:23.483Z,29.15
2022-08-25T10:13:41.041Z,29.17
2022-08-25T10:14:44.332Z,29.18
2022-08-25T10:15:47.993Z,29.18
2022-08-25T10:16:52.875Z,29.19
2022-08-25T10:17:56.416Z,29.20
2022-08-25T10:19:07.406Z,29.19
2022-08-25T10:20:21.521Z,29.20
2022-08-25T10:21:24.719Z,29.20
2022-08-25T10:22:29.585Z,29.19
2022-08-25T10:23:36.341Z,29.20
2022-08-25T10:24:41.004Z,29.20
2022-08-25T10:25:59.306Z,29.21
2022-08-25T10:27:05.491Z,29.22
2022-08-25T10:28:23.936Z,29.26
2022-08-25T10:29:36.812Z,29.26
2022-08-25T10:31:05.338Z,29.29
2022-08-25T10:32:13.833Z,29.32
2022-08-25T10:33:31.101Z,29.36
2022-08-25T10:34:55.748Z,29.39
2022-08-25T10:36:21.317Z,29.41
2022-08-25T10:37:44.575Z,29.46
2022-08-25T10:39:01.626Z,29.50
2022-08-25T10:40:26.551Z,29.53
2022-08-25T10:41:33.439Z,29.56
2022-08-25T10:42:56.430Z,29.59
2022-08-25T10:44:57.768Z,29.60
2022-08-25T10:46:04.474Z,29.63
2022-08-25T10:47:32.258Z,29.65
2022-08-25T10:48:46.927Z,29.65
2022-08-25T10:50:04.948Z,29.68
2022-08-25T10:51:28.247Z,29.71
2022-08-25T10:52:40.803Z,29.74
2022-08-25T10:53:56.155Z,29.78
2022-08-25T10:55:15.238Z,29.83
2022-08-25T10:56:26.397Z,29.87
2022-08-25T10:57:47.809Z,29.91
2022-08-25T10:59:27.884Z,29.95
2022-08-25T11:00:36.985Z,29.99
2022-08-25T11:02:17.042Z,30.04
2022-08-25T11:03:40.444Z,30.08
2022-08-25T11:04:50.548Z,30.13
2022-08-25T11:06:02.747Z,30.15
2022-08-25T11:07:19.033Z,30.17
2022-08-25T11:08:39.833Z,30.19
2022-08-25T11:09:47.256Z,30.21
2022-08-25T11:11:01.810Z,30.23
2022-08-25T11:12:23.821Z,30.25
2022-08-25T11:14:50.627Z,30.41
2022-08-25T11:16:16.509Z,30.31
2022-08-25T11:17:18.924Z,30.31
2022-08-25T11:18:24.181Z,30.33
2022-08-25T11:19:43.988Z,30.32
2022-08-25T11:22:16.552Z,30.42
2022-08-25T11:23:25.053Z,30.29
2022-08-25T11:24:50.401Z,30.29
2022-08-25T11:26:00.533Z,30.29
2022-08-25T11:27:07.235Z,30.28
2022-08-25T11:28:20.023Z,30.28
2022-08-25T11:29:36.189Z,30.28
2022-08-25T11:30:41.060Z,30.27
2022-08-25T11:31:52.744Z,30.28
2022-08-25T11:32:54.342Z,30.28
2022-08-25T11:33:58.415Z,30.29
2022-08-25T11:35:12.186Z,30.31
2022-08-25T11:36:35.281Z,30.31
2022-08-25T11:37:59.887Z,30.31
2022-08-25T11:39:23.132Z,30.31
2022-08-25T11:40:38.230Z,30.31
2022-08-25T11:42:00.105Z,30.29
2022-08-25T11:43:26.086Z,30.28
2022-08-25T11:44:34.050Z,30.27
2022-08-25T11:45:58.478Z,30.26
2022-08-25T11:47:21.198Z,30.27
2022-08-25T11:50:58.667Z,30.29
2022-08-25T11:52:06.993Z,30.29
2022-08-25T11:53:26.609Z,30.29
2022-08-25T11:54:38.648Z,30.30
2022-08-25T11:55:58.033Z,30.28
2022-08-25T11:57:07.930Z,30.29
2022-08-25T11:58:30.681Z,30.28
2022-08-25T11:59:56.036Z,30.28
2022-08-25T12:01:03.051Z,30.30
2022-08-25T12:02:16.558Z,30.30
2022-08-25T12:03:47.065Z,30.30
2022-08-25T12:04:55.271Z,30.30
2022-08-25T12:06:22.739Z,30.31
2022-08-25T12:07:37.111Z,30.31
2022-08-25T12:09:04.337Z,30.29
2022-08-25T12:10:31.565Z,30.28
2022-08-25T12:11:49.706Z,30.25
2022-08-25T12:13:02.483Z,30.24
2022-08-25T12:14:25.037Z,30.23
2022-08-25T12:15:46.055Z,30.23
2022-08-25T12:17:01.507Z,30.23
2022-08-25T12:18:22.606Z,30.24
2022-08-25T12:19:29.164Z,30.25
2022-08-25T12:20:56.070Z,30.27
2022-08-25T12:22:03.122Z,30.28
2022-08-25T12:23:07.866Z,30.30
2022-08-25T12:24:13.556Z,30.32
2022-08-25T12:25:35.766Z,30.34
2022-08-25T12:26:49.228Z,30.36
2022-08-25T12:28:09.245Z,30.38
2022-08-25T12:29:21.428Z,30.40
2022-08-25T12:30:32.357Z,30.41
2022-08-25T12:31:43.484Z,30.44
2022-08-25T12:33:11.357Z,30.47
2022-08-25T12:34:41.484Z,30.50
2022-08-25T12:35:57.282Z,30.53
2022-08-25T12:37:06.110Z,30.55
2022-08-25T12:38:19.313Z,30.57
2022-08-25T12:39:25.613Z,30.58
2022-08-25T12:40:35.579Z,30.59
2022-08-25T12:41:42.486Z,30.61
2022-08-25T12:42:45.697Z,30.63
2022-08-25T12:43:51.770Z,30.65
2022-08-25T12:45:16.304Z,30.65
2022-08-25T12:46:27.033Z,30.65
2022-08-25T12:47:33.633Z,30.67
2022-08-25T12:48:40.303Z,30.68
2022-08-25T12:49:46.191Z,30.69
2022-08-25T12:50:58.631Z,30.69
2022-08-25T12:52:20.230Z,30.70
2022-08-25T12:53:42.061Z,30.70
2022-08-25T12:54:51.750Z,30.70
2022-08-25T12:55:58.507Z,30.68
2022-08-25T12:57:34.181Z,30.67
2022-08-25T12:59:00.371Z,30.65
2022-08-25T13:00:13.661Z,30.62
2022-08-25T13:01:49.250Z,30.58
2022-08-25T13:03:22.821Z,30.55
2022-08-25T13:04:35.902Z,30.52
2022-08-25T13:06:08.317Z,30.50
2022-08-25T13:07:14.980Z,30.48
2022-08-25T13:08:33.615Z,30.45
2022-08-25T13:09:48.475Z,30.44
2022-08-25T13:11:04.967Z,30.42
2022-08-25T13:12:28.698Z,30.40
2022-08-25T13:13:38.612Z,30.37
2022-08-25T13:14:44.054Z,30.33
2022-08-25T13:15:59.543Z,30.30
2022-08-25T13:17:03.211Z,30.28
2022-08-25T13:18:19.814Z,30.24
2022-08-25T13:19:23.730Z,30.21
2022-08-25T13:20:30.492Z,30.19
2022-08-25T13:21:42.871Z,30.17
2022-08-25T13:22:57.228Z,30.14
2022-08-25T13:24:01.332Z,30.11
2022-08-25T13:25:05.152Z,30.09
2022-08-25T13:26:12.499Z,30.07
2022-08-25T13:27:28.302Z,30.06
2022-08-25T13:28:35.696Z,30.06
2022-08-25T13:29:57.476Z,30.06
2022-08-25T13:31:10.364Z,30.06
2022-08-25T13:32:16.130Z,30.07
2022-08-25T13:33:25.099Z,30.09
2022-08-25T13:34:34.931Z,30.11
2022-08-25T13:35:36.794Z,30.13
2022-08-25T13:37:04.274Z,30.15
2022-08-25T13:38:18.896Z,30.17
2022-08-25T13:39:45.480Z,30.18
2022-08-25T13:40:32.252Z,30.18
2022-08-25T13:41:35.401Z,30.20
2022-08-25T13:42:44.283Z,30.21
2022-08-25T13:43:47.734Z,30.21
2022-08-25T13:44:51.976Z,30.21
2022-08-25T13:45:56.192Z,30.22
2022-08-25T13:47:12.468Z,30.22
2022-08-25T13:48:22.555Z,30.24
2022-08-25T13:49:27.309Z,30.23
2022-08-25T13:50:36.439Z,30.24
2022-08-25T13:51:43.688Z,30.23
2022-08-25T13:52:50.395Z,30.24
2022-08-25T13:53:56.825Z,30.27
2022-08-25T13:55:01.925Z,30.28
2022-08-25T13:56:07.644Z,30.31
2022-08-25T13:57:23.238Z,30.36
2022-08-25T13:58:39.686Z,30.38
2022-08-25T13:59:40.238Z,30.44
2022-08-25T14:00:49.867Z,30.49
2022-08-25T14:01:55.916Z,30.54
2022-08-25T14:03:01.228Z,30.60
2022-08-25T14:04:31.033Z,30.65
2022-08-25T14:05:44.991Z,30.71
2022-08-25T14:06:48.711Z,30.76
2022-08-25T14:08:09.223Z,30.79
2022-08-25T14:09:05.296Z,30.81
2022-08-25T14:10:12.969Z,30.84
2022-08-25T14:11:34.446Z,30.88
2022-08-25T14:12:45.240Z,30.88
2022-08-25T14:13:51.924Z,30.90
2022-08-25T14:15:01.681Z,30.90
2022-08-25T14:16:23.209Z,30.89
2022-08-25T14:17:39.683Z,30.87
2022-08-25T14:18:33.594Z,30.83
2022-08-25T14:19:40.228Z,30.81
2022-08-25T14:20:46.876Z,30.77
2022-08-25T14:21:52.881Z,30.74
2022-08-25T14:23:01.817Z,30.70
2022-08-25T14:24:05.919Z,30.66
2022-08-25T14:25:09.338Z,30.62
2022-08-25T14:26:14.789Z,30.59
2022-08-25T14:27:18.614Z,30.56
2022-08-25T14:28:25.812Z,30.52
2022-08-25T14:29:29.453Z,30.49
2022-08-25T14:30:39.039Z,30.45
2022-08-25T14:31:45.418Z,30.41
2022-08-25T14:32:48.627Z,30.37
2022-08-25T14:34:03.175Z,30.33
2022-08-25T14:35:09.799Z,30.30
2022-08-25T14:36:13.241Z,30.27
2022-08-25T14:37:20.373Z,30.23
2022-08-25T14:38:25.657Z,30.21
2022-08-25T14:39:28.750Z,30.20
2022-08-25T14:40:34.373Z,30.17
2022-08-25T14:41:40.443Z,30.18
2022-08-25T14:42:44.507Z,30.18
2022-08-25T14:43:47.787Z,30.18
2022-08-25T14:44:52.406Z,30.20
2022-08-25T14:45:56.576Z,30.20
2022-08-25T14:47:02.523Z,30.22
2022-08-25T14:48:10.888Z,30.24
2022-08-25T14:49:17.625Z,30.27
2022-08-25T14:50:23.509Z,30.31
2022-08-25T14:51:29.709Z,30.34
2022-08-25T14:52:33.146Z,30.39
2022-08-25T14:53:36.972Z,30.42
2022-08-25T14:54:40.406Z,30.44
2022-08-25T14:55:43.611Z,30.47
2022-08-25T14:56:50.256Z,30.51
2022-08-25T14:57:53.299Z,30.53
2022-08-25T14:58:56.811Z,30.57
2022-08-25T15:00:03.448Z,30.58
2022-08-25T15:01:07.665Z,30.60
2022-08-25T15:02:15.814Z,30.62
2022-08-25T15:03:33.256Z,30.64
2022-08-25T15:04:37.464Z,30.66
2022-08-25T15:05:41.383Z,30.68
2022-08-25T15:06:48.001Z,30.68
2022-08-25T15:08:12.256Z,30.68
2022-08-25T15:09:17.519Z,30.68
2022-08-25T15:10:23.833Z,30.67
2022-08-25T15:11:28.748Z,30.66
2022-08-25T15:12:46.824Z,30.65
2022-08-25T15:13:37.213Z,30.64
2022-08-25T15:14:40.311Z,30.63
2022-08-25T15:15:52.678Z,30.62
2022-08-25T15:16:56.326Z,30.60
2022-08-25T15:18:01.270Z,30.58
2022-08-25T15:19:07.871Z,30.56
2022-08-25T15:20:11.923Z,30.55
2022-08-25T15:21:15.148Z,30.53
2022-08-25T15:22:18.704Z,30.50
2022-08-25T15:23:21.916Z,30.48
2022-08-25T15:24:25.750Z,30.47
2022-08-25T15:25:29.026Z,30.44
2022-08-25T15:26:41.563Z,30.42
2022-08-25T15:27:44.903Z,30.40
2022-08-25T15:28:49.893Z,30.37
2022-08-25T15:29:53.330Z,30.32
2022-08-25T15:30:57.370Z,30.29
2022-08-25T15:32:01.787Z,30.26
2022-08-25T15:33:04.824Z,30.23
2022-08-25T15:34:11.636Z,30.20